Easton, MD

5:54 AM EDT on November 01, 2014 (GMT -0400)
Cambridge-Dorchester | Change Station
CLOSE
Current Station
Airport
Location: Cambridge,
Elevation: 20 ft
Nearby Weather Stations

Elev 20 ft 38.54 °N, 76.03 °W | Updated 18 minutes ago

Overcast
Overcast
52 °F
Feels Like 52 °F
N
10
Wind Variable Wind from North
Gusts 16 mph

Today
High -- | Low -- °F
--% Chance of Precip.
Yesterday
High -- | Low -- °F
Precip. -- in
7:31 AM 6:03 PM
Waxing Gibbous, 65% visible
Pressure 29.70 in
Visibility 10.0 miles
Clouds Overcast 1700 ft
Dew Point 43 °F
Humidity 71%
Rainfall 0.00 in
Snow Depth Not available.
UV 0 out of 12
Pollen .10 out of 12
Air Quality Not available.
Flu Activity Not available.
METAR KCGE 010936Z AUTO 36009G14KT 10SM OVC017 11/06 A2970 RMK AO1

More Conditions Fewer Conditions

Pressure 29.70 in
Visibility 10.0 miles
Clouds Overcast 1700 ft
Dew Point 43 °F
Humidity 71%
Rainfall 0.00 in
Snow Depth Not available.
UV 0 out of 12
Pollen .10 out of 12
Air Quality Not available.
Flu Activity Not available.
METAR KCGE 010936Z AUTO 36009G14KT 10SM OVC017 11/06 A2970 RMK AO1

More Conditions Fewer Conditions

Nowcast | as of 4:58 am EDT on November 1, 2014

Showers will continue to spread across the area this morning. Rainfall rates of around a couple of hundredths to less than a tenth of an inch can occur which will lead to slick roadways. Drivers are urged to use caution while driving this morning.

×

10-Day Weather Forecast

Almanac

Astronomy

Nov. 01, 2014 Rise Set
Actual Time
Civil Twilight
Nautical Twilight
Astronomical Twilight
Moon
Length of Visible Light
Length of Day
Tomorrow will be .
, % of the Moon is Illuminated

Today's Extremes

State Highs State Lows

Community

WunderPhotos

Upload Photos

1,766,872 photos uploaded!

WunderBlogs® & News

Nearby

Air Quality

  Air Quality AQ Index Pollutant
Not available.

Snow Depth

Station Depth Elevation

Earthquake Activity

City Distance Mag. Time & Date
Minimum magnitude displayed is 2.5.

Coastal Water Temperatures

Place Temperature

Nearby Weather Stations